Home > Products > Valid Products > MTR

000
SAUS43 KBIS 231253
MTRN60
METAR KN60 231252Z AUTO 07013KT 14/13 A3005 RMK AO1 SLP177 T01390133





000
SAUS43 KBIS 231154
MTRN60
METAR KN60 231152Z AUTO 07011KT 14/13 A3007 RMK AO1 SLP180 70007
T01440133 10172 20144 55006





000
SAUS43 KBIS 231053
MTRN60
METAR KN60 231052Z AUTO 07009G19KT 14/13 A3006 RMK AO1 SLP178
T01440133





000
SAUS43 KBIS 230954
MTRN60
METAR KN60 230952Z AUTO 06011KT 15/13 A3008 RMK AO1 SLP185 T01500133





000
SAUS43 KBIS 230853
MTRN60
METAR KN60 230852Z AUTO 07010KT 15/14 A3008 RMK AO1 SLP185 T01500139
58007





000
SAUS43 KBIS 230754
MTRN60
METAR KN60 230752Z AUTO 06009KT 17/14 A3010 RMK AO1 SLP188 T01670144





000
SAUS43 KBIS 230653
MTRN60
METAR KN60 230652Z AUTO 07010G18KT 17/14 A3011 RMK AO1 SLP194
T01670144





000
SAUS43 KBIS 230554
MTRN60
METAR KN60 230552Z AUTO 07009KT 17/15 A3011 RMK AO1 SLP192 T01720150
10183 20167 402000161 50000





000
SAUS43 KBIS 230453
MTRN60
METAR KN60 230452Z AUTO 07011G16KT 17/15 A3012 RMK AO1 SLP197
T01720150





000
SAUS43 KBIS 230354
MTRN60
METAR KN60 230352Z AUTO 06008G16KT 18/16 A3012 RMK AO1 SLP195
T01780156





000
SAUS43 KBIS 230254
MTRN60
METAR KN60 230252Z AUTO 05007KT 18/16 A3011 RMK AO1 SLP193 T01780156
51006





000
SAUS43 KBIS 230154
MTRN60
METAR KN60 230152Z AUTO 06005KT 18/16 A3010 RMK AO1 SLP192 T01780161





000
SAUS43 KBIS 230054
MTRN60
METAR KN60 230052Z AUTO 06007KT 18/16 A3010 RMK AO1 SLP190 T01830156





000
SAUS43 KBIS 222354
MTRN60
METAR KN60 222352Z AUTO 04009G16KT 18/16 A3009 RMK AO1 SLP186 60001
T01830161 10200 20178 50001





000
SAUS43 KBIS 222253
MTRN60
METAR KN60 222252Z AUTO 03008KT 19/16 A3009 RMK AO1 SLP185 T01940161





000
SAUS43 KBIS 222154
MTRN60
METAR KN60 222152Z AUTO 04008KT 19/16 A3009 RMK AO1 SLP186 T01890161





000
SAUS43 KBIS 222053
MTRN60
METAR KN60 222052Z AUTO 05009KT 19/17 A3008 RMK AO1 SLP182 60001
T01940167 50002





000
SAUS43 KBIS 221954
MTRN60
METAR KN60 221952Z AUTO 05007KT 19/17 A3008 RMK AO1 SLP183 T01940167





000
SAUS43 KBIS 221854
MTRN60
METAR KN60 221852Z AUTO 04006KT 18/17 A3008 RMK AO1 SLP185 P0001
T01780167





000
SAUS43 KBIS 221756 COR
MTRN60
METAR KN60 221752Z AUTO 04008KT 19/16 A3007 RMK AO1 SLP181 60006
T01890161 10189 20161 51004





000
SAUS43 KBIS 221654
MTRN60
METAR KN60 221652Z AUTO 04007KT 18/16 A3007 RMK AO1 SLP180 T01830161





000
SAUS43 KBIS 221554
MTRN60
METAR KN60 221552Z AUTO 03009KT 18/16 A3007 RMK AO1 SLP179 T01830161





000
SAUS43 KBIS 221454
MTRN60
METAR KN60 221452Z AUTO 03007KT 17/16 A3006 RMK AO1 SLP177 P0001
60006 T01670161 51010





000
SAUS43 KBIS 221354
MTRN60
METAR KN60 221352Z AUTO 01007KT 17/16 A3005 RMK AO1 SLP173 P0005
T01670161





000
SAUS43 KBIS 221253
MTRN60
METAR KN60 221252Z AUTO 03008KT 17/16 A3004 RMK AO1 SLP169 T01720161





000
SAUS43 KBIS 221154
MTRN60
METAR KN60 221152Z AUTO 03008KT 17/16 A3003 RMK AO1 SLP161 T01720161
10183 20172 51011





000
SAUS43 KBIS 221053
MTRN60
METAR KN60 221052Z AUTO 03005KT 18/17 A3003 RMK AO1 SLP160 T01780172





000
SAUS43 KBIS 220954
MTRN60
METAR KN60 220952Z AUTO 06003KT 18/17 A3002 RMK AO1 SLP156 T01780172





000
SAUS43 KBIS 220853
MTRN60
METAR KN60 220852Z AUTO 03005KT 18/17 A3000 RMK AO1 SLP150 T01830167
50004





000
SAUS43 KBIS 220754
MTRN60
METAR KN60 220752Z AUTO 03006KT 18/17 A3001 RMK AO1 SLP153 T01780167





000
SAUS43 KBIS 220653
MTRN60
METAR KN60 220652Z AUTO 36006KT 18/17 A2999 RMK AO1 SLP148 T01780167





000
SAUS43 KBIS 220554
MTRN60
METAR KN60 220552Z AUTO 02004KT 18/17 A2998 RMK AO1 SLP147 T01780167
10256 20178 402610167 55000





000
SAUS43 KBIS 220453
MTRN60
METAR KN60 220452Z AUTO 36005KT 18/17 A2998 RMK AO1 SLP145 T01830172





000
SAUS43 KBIS 220354
MTRN60
METAR KN60 220352Z AUTO 03006KT 19/17 A2998 RMK AO1 SLP146 T01890172





000
SAUS43 KBIS 220253
MTRN60
METAR KN60 220252Z AUTO 02004KT 20/18 A2999 RMK AO1 SLP149 T02000178
53022





000
SAUS43 KBIS 220154
MTRN60
METAR KN60 220152Z AUTO 02006KT 21/18 A2994 RMK AO1 SLP134 T02110178





000
SAUS43 KBIS 220053
MTRN60
METAR KN60 220052Z AUTO 35006KT 22/17 A2993 RMK AO1 SLP128 T02220172





000
SAUS43 KBIS 212354
MTRN60
METAR KN60 212352Z AUTO 33008KT 26/15 A2992 RMK AO1 SLP122 T02560150
10261 20239 53006





000
SAUS43 KBIS 212253
MTRN60
METAR KN60 212252Z AUTO 33010KT 26/16 A2991 RMK AO1 SLP120 T02610156





000
SAUS43 KBIS 212154
MTRN60
METAR KN60 212152Z AUTO 35009KT 26/17 A2990 RMK AO1 SLP117 T02560167





000
SAUS43 KBIS 212054
MTRN60
METAR KN60 212052Z AUTO 35013G19KT 24/17 A2990 RMK AO1 SLP117
T02440172 53010





000
SAUS43 KBIS 211954
MTRN60
METAR KN60 211952Z AUTO 33013KT 25/17 A2989 RMK AO1 SLP112 T02500167





000
SAUS43 KBIS 211854
MTRN60
METAR KN60 211852Z AUTO 34010KT 26/17 A2988 RMK AO1 SLP108 T02560172





000
SAUS43 KBIS 211754
MTRN60
METAR KN60 211752Z AUTO 33012KT 24/17 A2987 RMK AO1 SLP105 T02440172
10244 20178 51005





000
SAUS43 KBIS 211654
MTRN60
METAR KN60 211652Z AUTO 32012KT 23/18 A2986 RMK AO1 SLP104 T02330183





000
SAUS43 KBIS 211554
MTRN60
METAR KN60 211552Z AUTO 32007KT 20/18 A2986 RMK AO1 SLP105 T02000178





000
SAUS43 KBIS 211453
MTRN60
METAR KN60 211452Z AUTO 30009KT 20/18 A2985 RMK AO1 SLP102 T02000183
52014





000
SAUS43 KBIS 211354
MTRN60
METAR KN60 211352Z AUTO 33006KT 19/18 A2983 RMK AO1 SLP096 T01940183





000
SAUS43 KBIS 211253
MTRN60
METAR KN60 211252Z AUTO 35006KT 18/18 A2982 RMK AO1 SLP093 T01830178





000
SAUS43 KBIS 211154
MTRN60
METAR KN60 211152Z AUTO 33008KT 18/17 A2981 RMK AO1 SLP087 70062
T01780172 10189 20167 51021





000
SAUS43 KBIS 211053
MTRN60
METAR KN60 211052Z AUTO 33011G16KT 18/18 A2978 RMK AO1 SLP079
T01780178 $





000
SAUS43 KBIS 210954
MTRN60
METAR KN60 210952Z AUTO 35006KT 17/17 A2977 RMK AO1 SLP074 T01720172
$





000
SAUS43 KBIS 210853
MTRN60
METAR KN60 210852Z AUTO 31007KT 17/17 A2974 RMK AO1 SLP063 T01720167
55007 $





000
SAUS43 KBIS 210754
MTRN60
METAR KN60 210752Z AUTO 33007KT 18/18 A2974 RMK AO1 SLP064 T01830178
$





000
SAUS43 KBIS 210653
MTRN60
METAR KN60 210652Z AUTO 00000KT 19/18 A2976 RMK AO1 SLP068 T01890183
$





000
SAUS43 KBIS 210554
MTRN60
METAR KN60 210552Z AUTO 06004KT 19/18 A2976 RMK AO1 SLP070 P0003
60058 T01890183 10217 20189 402560172 53002 $





000
SAUS43 KBIS 210453
MTRN60
METAR KN60 210452Z AUTO 09005KT 19/18 A2976 RMK AO1 SLP068 P0040
T01890183





000
SAUS43 KBIS 210354
MTRN60
METAR KN60 210352Z AUTO 04005KT 19/18 A2975 RMK AO1 SLP067 T01890178





000
SAUS43 KBIS 210254
MTRN60
METAR KN60 210252Z AUTO 34003KT 19/18 A2976 RMK AO1 SLP070 P0007
60015 T01940183 53009





000
SAUS43 KBIS 210153
MTRN60
METAR KN60 210152Z AUTO 08007KT 21/19 A2974 RMK AO1 PRESRR SLP064
P0008 T02060194





000
SAUS43 KBIS 210053
MTRN60
METAR KN60 210052Z AUTO 35003KT 21/20 A2973 RMK AO1 SLP060 T02110200





000
SAUS43 KBIS 202354
MTRN60
METAR KN60 202352Z AUTO 00000KT 21/21 A2973 RMK AO1 SLP061 P0004
60004 T02110206 10256 20211 58001





000
SAUS43 KBIS 202253
MTRN60
METAR KN60 202252Z AUTO 21003KT 22/21 A2976 RMK AO1 SLP070 T02220206





000
SAUS43 KBIS 202154
MTRN60
METAR KN60 202152Z AUTO 00000KT 25/19 A2973 RMK AO1 SLP060 T02500194





000
SAUS43 KBIS 202053
MTRN60
METAR KN60 202052Z AUTO 11007KT 24/19 A2973 RMK AO1 SLP060 T02440189
50000





000
SAUS43 KBIS 201954
MTRN60
METAR KN60 201952Z AUTO 12004KT 22/19 A2974 RMK AO1 SLP062 T02170189





000
SAUS43 KBIS 201854
MTRN60
METAR KN60 201852Z AUTO 15009KT 23/19 A2973 RMK AO1 SLP059 T02330189





000
SAUS43 KBIS 201754
MTRN60
METAR KN60 201752Z AUTO 16010KT 25/19 A2973 RMK AO1 SLP059 T02500194
10256 20172 51019





000
SAUS43 KBIS 201654
MTRN60
METAR KN60 201652Z AUTO 14009KT 23/19 A2972 RMK AO1 SLP053 T02330189





000
SAUS43 KBIS 201554
MTRN60
METAR KN60 201552Z AUTO 13009KT 23/18 A2970 RMK AO1 SLP048 T02280183





000
SAUS43 KBIS 201453
MTRN60
METAR KN60 201452Z AUTO 14005KT 22/18 A2967 RMK AO1 SLP039 T02170183
58002





000
SAUS43 KBIS 201354
MTRN60
METAR KN60 201352Z AUTO 13005KT 20/18 A2969 RMK AO1 SLP044 T02000178





    US Dept of Commerce
    National Oceanic and Atmospheric Administration
    National Weather Service
    1325 East West Highway
    Silver Spring, MD 20910
    Page Author: NWS Internet Services Team
Disclaimer
Information Quality
Credits
Glossary
Privacy Policy
Freedom of Information Act (FOIA)
About Us
Career Opportunities